Disclaimer

Please do not use the information listed here in-flight or in-navigation, as they are not provided to us by the airports but are provided by volunteers, so they might be outdated.

Search


Regions


Airport information page

Radio informations:
Tower (TWR) - 118.2 MHz
Ground (GND) - 121.8 MHz
RDO - 5447.5 MHz
Clearance delivery - 121.3 MHz
Automatic Terminal Information Service (ATIS) - 134.4 MHz
Approach (APP) - 119.1 MHz

Airport informations:
Latitude: 14° 47' 40.02" N
Longitude: 120° 16' 16.91" E
Elevation: 64 feet - 20 meters
Operating hours: N/A
Operating agency: Civil government, landing fees and diplomatic clearance may be required
Timezone: UTC+8
Fuel: Unknown fuel type or whether there is any fuel.

Runway information:
07/25 - 9003 x 148 feet< - >2744 x 45 meters

Recent METARs:
RPLB 211100Z 08014KT 9999 FEW020 BKN080 OVC300 27/21 Q1009 NOSIG RMK A2980
RPLB 211100Z 08014KT 9999 FEW020 BKN080 OVC300 27/21 Q1009 NOSIG RMK A2980
RPLB 211100Z 08014KT 9999 FEW020 BKN080 OVC300 27/21 Q1009 NOSIG RMK A2980

Airport on the map: